This is the latest recevied weather packets stored in our database for station/object DC5DM-13. If no packets are shown the sender has not sent any weather packets the latest 10 day(s).
| Time | Temp. | Humidity | Pressure | Rain* | Wind** | Luminosity | Snow |
|---|---|---|---|---|---|---|---|
| 1787769643 | 18.89° C | 83% | 1016.8 hPa | 0 mm | - | - | - |
| 1787769073 | 18.89° C | 82% | 1016.8 hPa | 0 mm | - | - | - |
| 1787768443 | 19.44° C | 80% | 1016.8 hPa | 0 mm | - | - | - |
| 1787767873 | 20° C | 79% | 1016.7 hPa | 0 mm | - | - | - |
| 1787767243 | 20° C | 77% | 1016.7 hPa | 0 mm | - | - | - |
| 1787766673 | 20.56° C | 76% | 1016.7 hPa | 0 mm | - | - | - |
| 1787766044 | 21.11° C | 75% | 1016.7 hPa | 0 mm | - | - | - |
| 1787765474 | 21.67° C | 73% | 1016.5 hPa | 0 mm | - | - | - |
| 1787764843 | 22.22° C | 71% | 1016.5 hPa | 0 mm | - | - | - |
| 1787764273 | 22.22° C | 71% | 1016.4 hPa | 0 mm | - | - | - |
| 1787763643 | 22.78° C | 70% | 1016.5 hPa | 0 mm | - | - | - |
| 1787763073 | 23.33° C | 69% | 1016.7 hPa | 0 mm | - | - | - |
| 1787762443 | 23.33° C | 69% | 1016.7 hPa | 0 mm | - | - | - |
| 1787761874 | 23.33° C | 69% | 1016.8 hPa | 0 mm | - | - | - |
| 1787761244 | 23.89° C | 68% | 1016.8 hPa | 0 mm | - | - | - |
| 1787760674 | 23.89° C | 68% | 1016.7 hPa | 0 mm | - | - | - |
| 1787760043 | 23.33° C | 68% | 1016.8 hPa | 0 mm | - | - | - |
| 1787759474 | 23.33° C | 69% | 1016.8 hPa | 0 mm | - | - | - |
| 1787758843 | 23.89° C | 67% | 1016.9 hPa | 0 mm | - | - | - |
| 1787758274 | 23.33° C | 69% | 1016.8 hPa | 0 mm | - | - | - |
| 1787757643 | 24.44° C | 67% | 1016.8 hPa | 0 mm | - | - | - |
| 1787757074 | 23.89° C | 68% | 1016.8 hPa | 0 mm | - | - | - |
| 1787756442 | 22.78° C | 72% | 1017.1 hPa | 0 mm | - | - | - |
| 1787755874 | 22.78° C | 71% | 1017.1 hPa | 0 mm | - | - | - |
| 1787755243 | 22.22° C | 71% | 1017.3 hPa | 0 mm | - | - | - |
* Rain latest hour (hover to see other rain measurements)
** Current wind speed in m/s (hover to see current wind gust speed)